createdAt,value
2022-08-27T00:03:26.376Z,99792.39
2022-08-27T00:08:31.432Z,99788.98
2022-08-27T00:13:35.879Z,99785.44
2022-08-27T00:18:41.224Z,99782.34
2022-08-27T00:23:44.849Z,99783.86
2022-08-27T00:28:48.542Z,99782.44
2022-08-27T00:33:52.719Z,99776.11
2022-08-27T00:38:56.079Z,99779.05
2022-08-27T00:44:02.285Z,99777.40
2022-08-27T00:49:20.522Z,99776.81
2022-08-27T00:54:26.769Z,99782.56
2022-08-27T00:59:33.074Z,99783.92
2022-08-27T01:04:39.710Z,99781.48
2022-08-27T01:09:46.461Z,99776.30
2022-08-27T01:14:53.574Z,99770.34
2022-08-27T01:20:00.817Z,99765.83
2022-08-27T01:25:14.087Z,99764.69
2022-08-27T01:30:20.754Z,99759.30
2022-08-27T01:35:25.839Z,99761.93
2022-08-27T01:40:29.241Z,99762.75
2022-08-27T01:45:37.304Z,99760.98
2022-08-27T01:50:41.849Z,99763.85
2022-08-27T01:55:48.200Z,99765.11
2022-08-27T02:00:56.474Z,99760.14
2022-08-27T02:06:09.495Z,99752.91
2022-08-27T02:11:12.810Z,99754.64
2022-08-27T02:16:16.651Z,99758.38
2022-08-27T02:21:20.776Z,99759.73
2022-08-27T02:26:24.199Z,99753.44
2022-08-27T02:31:28.244Z,99754.02
2022-08-27T02:36:31.629Z,99751.67
2022-08-27T02:41:36.270Z,99757.23
2022-08-27T02:46:39.911Z,99757.95
2022-08-27T02:51:43.173Z,99758.18
2022-08-27T02:56:46.697Z,99758.98
2022-08-27T03:01:50.759Z,99752.32
2022-08-27T03:06:54.985Z,99746.76
2022-08-27T03:11:58.739Z,99741.91
2022-08-27T03:17:21.957Z,99743.62
2022-08-27T03:22:25.985Z,99743.45
2022-08-27T03:27:29.539Z,99736.38
2022-08-27T03:32:33.425Z,99732.03
2022-08-27T03:37:36.861Z,99731.65
2022-08-27T03:42:40.839Z,99733.63
2022-08-27T03:47:44.227Z,99731.81
2022-08-27T03:52:47.684Z,99731.59
2022-08-27T03:57:51.339Z,99734.41
2022-08-27T04:02:56.214Z,99731.88
2022-08-27T04:07:59.860Z,99729.84
2022-08-27T04:13:03.389Z,99733.65
2022-08-27T04:18:06.896Z,99735.06
2022-08-27T04:23:10.761Z,99738.45
2022-08-27T04:28:15.179Z,99738.12
2022-08-27T04:33:18.591Z,99735.61
2022-08-27T04:38:22.208Z,99731.73
2022-08-27T04:43:28.641Z,99726.85
2022-08-27T04:48:32.490Z,99732.06
2022-08-27T04:53:36.440Z,99735.39
2022-08-27T04:58:39.773Z,99737.98
2022-08-27T05:03:43.345Z,99735.99
2022-08-27T05:08:48.082Z,99738.68
2022-08-27T05:13:51.517Z,99740.09
2022-08-27T05:18:54.926Z,99745.35
2022-08-27T05:24:00.919Z,99747.49
2022-08-27T05:29:06.605Z,99747.89
2022-08-27T05:34:18.892Z,99740.75
2022-08-27T05:39:29.675Z,99746.55
2022-08-27T05:44:41.119Z,99747.15
2022-08-27T05:49:45.768Z,99751.32
2022-08-27T05:54:48.958Z,99755.93
2022-08-27T06:00:15.787Z,99758.48
2022-08-27T06:05:20.335Z,99763.02
2022-08-27T06:10:23.849Z,99763.33
2022-08-27T06:15:27.521Z,99766.30
2022-08-27T06:20:31.013Z,99770.38
2022-08-27T06:25:34.243Z,99766.03
2022-08-27T06:30:37.634Z,99766.98
2022-08-27T06:35:41.481Z,99771.02
2022-08-27T06:40:44.793Z,99770.94
2022-08-27T06:45:48.432Z,99771.45
2022-08-27T06:50:51.895Z,99773.42
2022-08-27T06:55:55.258Z,99771.19
2022-08-27T07:01:00.060Z,99771.82
2022-08-27T07:06:06.007Z,99771.02
2022-08-27T07:11:12.110Z,99768.59
2022-08-27T07:16:19.467Z,99770.91
2022-08-27T07:21:27.770Z,99772.38
2022-08-27T07:26:33.431Z,99772.61
2022-08-27T07:31:37.130Z,99774.11
2022-08-27T07:36:41.449Z,99773.67
2022-08-27T07:42:03.552Z,99771.88
2022-08-27T07:47:07.325Z,99771.75
2022-08-27T07:52:10.853Z,99770.98
2022-08-27T07:57:14.284Z,99771.42
2022-08-27T08:02:17.785Z,99769.54
2022-08-27T08:07:22.291Z,99769.36
2022-08-27T08:12:26.518Z,99773.25
2022-08-27T08:17:30.155Z,99776.27
2022-08-27T08:22:33.532Z,99775.67
2022-08-27T08:27:37.294Z,99775.33
2022-08-27T08:32:41.049Z,99776.38
2022-08-27T08:37:45.439Z,99780.83
2022-08-27T08:42:55.215Z,99778.23
2022-08-27T08:48:26.823Z,99782.13
2022-08-27T08:53:45.699Z,99778.98
2022-08-27T08:59:08.773Z,99772.27
2022-08-27T09:04:13.030Z,99769.78
2022-08-27T09:09:58.490Z,99770.75
2022-08-27T09:15:19.225Z,99763.40
2022-08-27T09:20:25.465Z,99758.44
2022-08-27T09:25:39.776Z,99759.81
2022-08-27T09:30:44.190Z,99757.09
2022-08-27T09:35:48.124Z,99748.40
2022-08-27T09:40:52.711Z,99752.27
2022-08-27T09:45:59.692Z,99750.27
2022-08-27T09:51:40.426Z,99749.73
2022-08-27T09:56:50.532Z,99753.81
2022-08-27T10:02:04.293Z,99750.94
2022-08-27T10:07:26.678Z,99748.77
2022-08-27T10:12:51.615Z,99742.40
2022-08-27T10:18:12.761Z,99737.58
2022-08-27T10:23:23.067Z,99737.61
2022-08-27T10:28:37.042Z,99738.05
2022-08-27T10:33:59.506Z,99730.59
2022-08-27T10:39:04.509Z,99731.81
2022-08-27T10:44:10.590Z,99729.98
2022-08-27T10:49:21.490Z,99730.28
2022-08-27T10:54:54.703Z,99729.50
2022-08-27T11:00:29.894Z,99727.81
2022-08-27T11:05:43.903Z,99724.02
2022-08-27T11:10:57.145Z,99726.54
2022-08-27T11:16:07.605Z,99726.16
2022-08-27T11:21:20.187Z,99724.52
2022-08-27T11:26:23.400Z,99725.52
2022-08-27T11:31:41.271Z,99726.27
2022-08-27T11:37:09.236Z,99719.33
2022-08-27T11:42:43.574Z,99717.63
2022-08-27T11:47:58.970Z,99712.22
2022-08-27T11:53:06.383Z,99714.77
2022-08-27T11:58:11.624Z,99709.09
2022-08-27T12:03:27.372Z,99704.94
2022-08-27T12:08:35.072Z,99704.64
2022-08-27T12:14:15.838Z,99707.55
2022-08-27T12:19:32.971Z,99700.27
2022-08-27T12:24:56.353Z,99691.36
2022-08-27T12:30:07.593Z,99694.64
2022-08-27T12:35:28.991Z,99688.69
2022-08-27T12:40:50.318Z,99685.14
2022-08-27T12:46:14.454Z,99682.17
2022-08-27T12:51:36.472Z,99681.02
2022-08-27T12:56:54.728Z,99674.88
2022-08-27T13:02:12.115Z,99679.52
2022-08-27T13:07:32.973Z,99674.73
2022-08-27T13:12:43.573Z,99675.34
2022-08-27T13:17:47.977Z,99675.34
2022-08-27T13:22:53.466Z,99669.43
2022-08-27T13:28:08.322Z,99663.79
2022-08-27T13:33:20.062Z,99665.66
2022-08-27T13:38:26.343Z,99662.45
2022-08-27T13:43:38.050Z,99659.23
2022-08-27T13:48:42.694Z,99656.16
2022-08-27T13:54:06.897Z,99659.27
2022-08-27T13:59:15.020Z,99662.52
2022-08-27T14:04:24.733Z,99661.63
2022-08-27T14:09:30.344Z,99662.13
2022-08-27T14:14:39.554Z,99661.56
2022-08-27T14:19:43.419Z,99662.23
2022-08-27T14:24:47.136Z,99663.41
2022-08-27T14:29:50.512Z,99668.72
2022-08-27T14:34:53.861Z,99667.41
2022-08-27T14:39:57.332Z,99674.38
2022-08-27T14:45:01.406Z,99667.95
2022-08-27T14:50:09.684Z,99673.95
2022-08-27T14:55:14.787Z,99675.55
2022-08-27T15:00:18.616Z,99676.95
2022-08-27T15:05:24.754Z,99676.48
2022-08-27T15:10:28.508Z,99675.80
2022-08-27T15:15:31.818Z,99667.73
2022-08-27T15:20:36.359Z,99665.80
2022-08-27T15:25:41.000Z,99660.98
2022-08-27T15:30:44.313Z,99655.61
2022-08-27T15:35:47.623Z,99649.84
2022-08-27T15:40:51.241Z,99646.82
2022-08-27T15:45:54.581Z,99641.83
2022-08-27T15:51:03.084Z,99636.83
2022-08-27T15:56:08.302Z,99631.25
2022-08-27T16:01:19.668Z,99624.80
2022-08-27T16:06:23.559Z,99616.63
2022-08-27T16:11:26.822Z,99608.90
2022-08-27T16:16:32.699Z,99609.55
2022-08-27T16:21:37.074Z,99604.96
2022-08-27T16:26:40.387Z,99608.73
2022-08-27T16:31:43.815Z,99610.23
2022-08-27T16:36:47.316Z,99607.15
2022-08-27T16:41:50.728Z,99604.70
2022-08-27T16:46:54.346Z,99601.48
2022-08-27T16:51:57.658Z,99602.24
2022-08-27T16:57:01.377Z,99606.09
2022-08-27T17:02:05.495Z,99603.02
2022-08-27T17:07:08.921Z,99602.19
2022-08-27T17:12:15.632Z,99599.04
2022-08-27T17:17:19.642Z,99603.17
2022-08-27T17:22:22.950Z,99604.28
2022-08-27T17:27:26.363Z,99600.83
2022-08-27T17:32:33.157Z,99608.77
2022-08-27T17:37:36.466Z,99610.88
2022-08-27T17:42:40.905Z,99616.52
2022-08-27T17:47:44.420Z,99619.77
2022-08-27T17:52:47.836Z,99618.85
2022-08-27T17:57:51.656Z,99611.45
2022-08-27T18:02:55.275Z,99618.09
2022-08-27T18:07:58.587Z,99624.39
2022-08-27T18:13:01.999Z,99624.04
2022-08-27T18:18:05.676Z,99620.94
2022-08-27T18:23:10.464Z,99631.64
2022-08-27T18:28:17.360Z,99636.67
2022-08-27T18:33:21.444Z,99630.34
2022-08-27T18:38:24.905Z,99633.52
2022-08-27T18:43:34.832Z,99630.33
2022-08-27T18:48:38.388Z,99636.75
2022-08-27T18:53:43.879Z,99648.31
2022-08-27T18:58:48.999Z,99649.14
2022-08-27T19:03:55.104Z,99653.20
2022-08-27T19:08:58.935Z,99657.08
2022-08-27T19:14:02.229Z,99661.08
2022-08-27T19:19:06.237Z,99662.98
2022-08-27T19:24:10.575Z,99672.23
2022-08-27T19:29:15.250Z,99668.69
2022-08-27T19:34:21.700Z,99668.89
2022-08-27T19:39:25.462Z,99667.09
2022-08-27T19:44:28.648Z,99669.80
2022-08-27T19:49:31.993Z,99669.60
2022-08-27T19:54:43.143Z,99676.73
2022-08-27T19:59:55.252Z,99674.61
2022-08-27T20:05:17.016Z,99671.63
2022-08-27T20:10:25.853Z,99673.54
2022-08-27T20:15:35.803Z,99675.41
2022-08-27T20:20:41.086Z,99677.73
2022-08-27T20:25:44.990Z,99678.75
2022-08-27T20:30:49.375Z,99677.38
2022-08-27T20:35:53.552Z,99677.15
2022-08-27T20:40:56.970Z,99679.29
2022-08-27T20:46:00.558Z,99680.77
2022-08-27T20:51:04.201Z,99681.90
2022-08-27T20:56:08.125Z,99678.35
2022-08-27T21:01:12.538Z,99677.69
2022-08-27T21:06:16.286Z,99679.64
2022-08-27T21:11:19.701Z,99675.67
2022-08-27T21:16:23.577Z,99672.06
2022-08-27T21:21:28.167Z,99670.70
2022-08-27T21:26:31.576Z,99663.05
2022-08-27T21:31:35.683Z,99662.60
2022-08-27T21:36:39.435Z,99652.80
2022-08-27T21:41:42.842Z,99654.98
2022-08-27T21:46:46.205Z,99659.52
2022-08-27T21:51:49.772Z,99653.58
2022-08-27T21:56:53.287Z,99643.77
2022-08-27T22:02:00.964Z,99642.30
2022-08-27T22:07:05.130Z,99649.88
2022-08-27T22:12:08.647Z,99642.45
2022-08-27T22:17:16.052Z,99636.59
2022-08-27T22:22:19.669Z,99637.45
2022-08-27T22:27:22.984Z,99635.75
2022-08-27T22:32:26.495Z,99634.67
2022-08-27T22:37:30.524Z,99637.52
2022-08-27T22:42:33.842Z,99632.31
2022-08-27T22:47:37.249Z,99625.89
2022-08-27T22:52:42.605Z,99621.16
2022-08-27T22:57:47.866Z,99626.91
2022-08-27T23:02:51.481Z,99621.88
2022-08-27T23:07:55.510Z,99619.17
2022-08-27T23:12:59.025Z,99614.00
2022-08-27T23:18:02.744Z,99613.79
2022-08-27T23:23:08.323Z,99610.46
2022-08-27T23:28:15.095Z,99609.84
2022-08-27T23:33:20.461Z,99602.96
2022-08-27T23:38:23.770Z,99599.45
2022-08-27T23:43:27.392Z,99596.46
2022-08-27T23:48:30.905Z,99592.23
2022-08-27T23:53:34.421Z,99588.98
2022-08-27T23:58:37.834Z,99590.44
